sensor_id;sensor_type;location;lat;lon;timestamp;P1;durP1;ratioP1;P2;durP2;ratioP2
35667;SDS011;22158;59.280;17.806;2023-08-24T00:00:20;5.78;;;3.22;;
35667;SDS011;22158;59.280;17.806;2023-08-24T00:02:46;6.88;;;3.33;;
35667;SDS011;22158;59.280;17.806;2023-08-24T00:05:11;5.95;;;3.17;;
35667;SDS011;22158;59.280;17.806;2023-08-24T00:07:38;7.53;;;3.30;;
35667;SDS011;22158;59.280;17.806;2023-08-24T00:10:04;4.88;;;3.15;;
35667;SDS011;22158;59.280;17.806;2023-08-24T00:12:30;4.63;;;3.25;;
35667;SDS011;22158;59.280;17.806;2023-08-24T00:14:58;6.13;;;3.58;;
35667;SDS011;22158;59.280;17.806;2023-08-24T00:17:24;7.68;;;3.65;;
35667;SDS011;22158;59.280;17.806;2023-08-24T00:19:49;5.45;;;3.00;;
35667;SDS011;22158;59.280;17.806;2023-08-24T00:22:15;6.30;;;4.05;;
35667;SDS011;22158;59.280;17.806;2023-08-24T00:24:41;8.10;;;3.45;;
35667;SDS011;22158;59.280;17.806;2023-08-24T00:27:06;6.05;;;3.00;;
35667;SDS011;22158;59.280;17.806;2023-08-24T00:29:32;8.98;;;2.78;;
35667;SDS011;22158;59.280;17.806;2023-08-24T00:31:58;4.55;;;2.80;;
35667;SDS011;22158;59.280;17.806;2023-08-24T00:34:23;9.07;;;3.05;;
35667;SDS011;22158;59.280;17.806;2023-08-24T00:36:49;6.47;;;2.63;;
35667;SDS011;22158;59.280;17.806;2023-08-24T00:39:14;5.75;;;2.92;;
35667;SDS011;22158;59.280;17.806;2023-08-24T00:41:41;4.13;;;2.95;;
35667;SDS011;22158;59.280;17.806;2023-08-24T00:44:07;8.52;;;3.00;;
35667;SDS011;22158;59.280;17.806;2023-08-24T00:46:33;5.78;;;3.47;;
35667;SDS011;22158;59.280;17.806;2023-08-24T00:48:59;6.38;;;3.28;;
35667;SDS011;22158;59.280;17.806;2023-08-24T00:51:25;4.57;;;2.92;;
35667;SDS011;22158;59.280;17.806;2023-08-24T00:53:51;6.53;;;3.22;;
35667;SDS011;22158;59.280;17.806;2023-08-24T00:56:17;5.30;;;2.72;;
35667;SDS011;22158;59.280;17.806;2023-08-24T00:58:49;6.10;;;2.95;;
35667;SDS011;22158;59.280;17.806;2023-08-24T01:01:17;3.65;;;2.47;;
35667;SDS011;22158;59.280;17.806;2023-08-24T01:03:43;5.03;;;2.83;;
35667;SDS011;22158;59.280;17.806;2023-08-24T01:06:09;5.10;;;3.15;;
35667;SDS011;22158;59.280;17.806;2023-08-24T01:08:34;7.55;;;3.35;;
35667;SDS011;22158;59.280;17.806;2023-08-24T01:11:09;4.43;;;2.80;;
35667;SDS011;22158;59.280;17.806;2023-08-24T01:13:50;5.63;;;2.75;;
35667;SDS011;22158;59.280;17.806;2023-08-24T01:16:18;6.40;;;3.20;;
35667;SDS011;22158;59.280;17.806;2023-08-24T01:18:51;6.72;;;3.08;;
35667;SDS011;22158;59.280;17.806;2023-08-24T01:21:22;6.17;;;2.90;;
35667;SDS011;22158;59.280;17.806;2023-08-24T01:26:38;6.53;;;2.80;;
35667;SDS011;22158;59.280;17.806;2023-08-24T01:29:06;6.22;;;2.42;;
35667;SDS011;22158;59.280;17.806;2023-08-24T01:31:33;5.22;;;2.70;;
35667;SDS011;22158;59.280;17.806;2023-08-24T01:33:58;4.90;;;2.80;;
35667;SDS011;22158;59.280;17.806;2023-08-24T01:36:26;2.67;;;2.30;;
35667;SDS011;22158;59.280;17.806;2023-08-24T01:41:55;3.65;;;2.45;;
35667;SDS011;22158;59.280;17.806;2023-08-24T01:44:25;7.10;;;2.90;;
35667;SDS011;22158;59.280;17.806;2023-08-24T01:46:53;6.00;;;2.40;;
35667;SDS011;22158;59.280;17.806;2023-08-24T01:49:21;5.35;;;3.20;;
35667;SDS011;22158;59.280;17.806;2023-08-24T01:51:47;5.68;;;2.83;;
35667;SDS011;22158;59.280;17.806;2023-08-24T01:54:14;4.90;;;2.78;;
35667;SDS011;22158;59.280;17.806;2023-08-24T01:56:40;4.80;;;3.03;;
35667;SDS011;22158;59.280;17.806;2023-08-24T01:59:05;5.13;;;2.95;;
35667;SDS011;22158;59.280;17.806;2023-08-24T02:01:31;5.72;;;2.50;;
35667;SDS011;22158;59.280;17.806;2023-08-24T02:03:57;5.03;;;2.40;;
35667;SDS011;22158;59.280;17.806;2023-08-24T02:06:28;4.75;;;2.50;;
35667;SDS011;22158;59.280;17.806;2023-08-24T02:08:54;5.57;;;2.95;;
35667;SDS011;22158;59.280;17.806;2023-08-24T02:11:20;11.63;;;3.85;;
35667;SDS011;22158;59.280;17.806;2023-08-24T02:13:45;6.20;;;2.60;;
35667;SDS011;22158;59.280;17.806;2023-08-24T02:16:11;5.47;;;2.60;;
35667;SDS011;22158;59.280;17.806;2023-08-24T02:18:37;7.45;;;3.15;;
35667;SDS011;22158;59.280;17.806;2023-08-24T02:21:07;4.90;;;2.55;;
35667;SDS011;22158;59.280;17.806;2023-08-24T02:23:33;4.32;;;2.40;;
35667;SDS011;22158;59.280;17.806;2023-08-24T02:25:59;6.28;;;2.67;;
35667;SDS011;22158;59.280;17.806;2023-08-24T02:28:25;6.95;;;2.85;;
35667;SDS011;22158;59.280;17.806;2023-08-24T02:30:50;2.97;;;2.15;;
35667;SDS011;22158;59.280;17.806;2023-08-24T02:33:16;2.83;;;2.47;;
35667;SDS011;22158;59.280;17.806;2023-08-24T02:35:42;6.05;;;2.47;;
35667;SDS011;22158;59.280;17.806;2023-08-24T02:38:09;5.63;;;2.47;;
35667;SDS011;22158;59.280;17.806;2023-08-24T02:40:35;3.67;;;2.60;;
35667;SDS011;22158;59.280;17.806;2023-08-24T02:43:01;8.07;;;3.47;;
35667;SDS011;22158;59.280;17.806;2023-08-24T02:45:27;4.13;;;2.67;;
35667;SDS011;22158;59.280;17.806;2023-08-24T02:47:53;4.65;;;2.60;;
35667;SDS011;22158;59.280;17.806;2023-08-24T02:50:18;4.13;;;2.47;;
35667;SDS011;22158;59.280;17.806;2023-08-24T02:52:44;5.60;;;3.00;;
35667;SDS011;22158;59.280;17.806;2023-08-24T02:55:10;7.03;;;3.05;;
35667;SDS011;22158;59.280;17.806;2023-08-24T02:57:36;4.10;;;2.70;;
35667;SDS011;22158;59.280;17.806;2023-08-24T03:00:02;7.18;;;3.13;;
35667;SDS011;22158;59.280;17.806;2023-08-24T03:02:31;5.35;;;2.72;;
35667;SDS011;22158;59.280;17.806;2023-08-24T03:04:57;6.57;;;2.75;;
35667;SDS011;22158;59.280;17.806;2023-08-24T03:07:23;7.03;;;2.72;;
35667;SDS011;22158;59.280;17.806;2023-08-24T03:09:48;4.00;;;2.95;;
35667;SDS011;22158;59.280;17.806;2023-08-24T03:12:14;4.22;;;2.70;;
35667;SDS011;22158;59.280;17.806;2023-08-24T03:14:40;6.38;;;2.60;;
35667;SDS011;22158;59.280;17.806;2023-08-24T03:17:05;6.35;;;3.38;;
35667;SDS011;22158;59.280;17.806;2023-08-24T03:19:32;6.95;;;3.10;;
35667;SDS011;22158;59.280;17.806;2023-08-24T03:21:58;5.07;;;2.42;;
35667;SDS011;22158;59.280;17.806;2023-08-24T03:24:23;6.00;;;2.42;;
35667;SDS011;22158;59.280;17.806;2023-08-24T03:26:49;7.75;;;3.05;;
35667;SDS011;22158;59.280;17.806;2023-08-24T03:29:15;3.20;;;2.20;;
35667;SDS011;22158;59.280;17.806;2023-08-24T03:31:40;3.58;;;2.70;;
35667;SDS011;22158;59.280;17.806;2023-08-24T03:34:06;5.18;;;3.10;;
35667;SDS011;22158;59.280;17.806;2023-08-24T03:36:32;6.82;;;2.90;;
35667;SDS011;22158;59.280;17.806;2023-08-24T03:38:57;3.30;;;2.45;;
35667;SDS011;22158;59.280;17.806;2023-08-24T03:41:23;5.53;;;2.60;;
35667;SDS011;22158;59.280;17.806;2023-08-24T03:43:49;5.38;;;2.75;;
35667;SDS011;22158;59.280;17.806;2023-08-24T03:46:14;3.72;;;2.65;;
35667;SDS011;22158;59.280;17.806;2023-08-24T03:48:40;3.90;;;2.80;;
35667;SDS011;22158;59.280;17.806;2023-08-24T03:51:06;3.92;;;2.70;;
35667;SDS011;22158;59.280;17.806;2023-08-24T03:53:31;4.47;;;2.70;;
35667;SDS011;22158;59.280;17.806;2023-08-24T03:55:57;7.68;;;2.92;;
35667;SDS011;22158;59.280;17.806;2023-08-24T03:58:23;7.68;;;3.10;;
35667;SDS011;22158;59.280;17.806;2023-08-24T04:00:49;4.25;;;2.53;;
35667;SDS011;22158;59.280;17.806;2023-08-24T04:03:15;5.60;;;2.60;;
35667;SDS011;22158;59.280;17.806;2023-08-24T04:05:41;5.47;;;2.65;;
35667;SDS011;22158;59.280;17.806;2023-08-24T04:08:07;4.53;;;2.50;;
35667;SDS011;22158;59.280;17.806;2023-08-24T04:10:33;4.10;;;3.38;;
35667;SDS011;22158;59.280;17.806;2023-08-24T04:12:58;5.53;;;2.80;;
35667;SDS011;22158;59.280;17.806;2023-08-24T04:15:24;7.60;;;2.80;;
35667;SDS011;22158;59.280;17.806;2023-08-24T04:17:50;6.13;;;2.80;;
35667;SDS011;22158;59.280;17.806;2023-08-24T04:20:16;5.90;;;3.53;;
35667;SDS011;22158;59.280;17.806;2023-08-24T04:22:42;4.72;;;2.75;;
35667;SDS011;22158;59.280;17.806;2023-08-24T04:25:08;9.77;;;3.63;;
35667;SDS011;22158;59.280;17.806;2023-08-24T04:27:34;7.28;;;3.17;;
35667;SDS011;22158;59.280;17.806;2023-08-24T04:30:00;5.88;;;2.80;;
35667;SDS011;22158;59.280;17.806;2023-08-24T04:32:27;6.88;;;3.72;;
35667;SDS011;22158;59.280;17.806;2023-08-24T04:34:53;9.68;;;2.85;;
35667;SDS011;22158;59.280;17.806;2023-08-24T04:37:18;3.97;;;2.78;;
35667;SDS011;22158;59.280;17.806;2023-08-24T04:39:44;6.85;;;3.20;;
35667;SDS011;22158;59.280;17.806;2023-08-24T04:42:10;7.90;;;3.25;;
35667;SDS011;22158;59.280;17.806;2023-08-24T04:44:36;4.38;;;3.03;;
35667;SDS011;22158;59.280;17.806;2023-08-24T04:47:01;7.32;;;3.15;;
35667;SDS011;22158;59.280;17.806;2023-08-24T04:49:27;7.07;;;3.33;;
35667;SDS011;22158;59.280;17.806;2023-08-24T04:51:53;8.88;;;3.03;;
35667;SDS011;22158;59.280;17.806;2023-08-24T04:54:19;8.93;;;2.83;;
35667;SDS011;22158;59.280;17.806;2023-08-24T04:56:44;5.35;;;2.72;;
35667;SDS011;22158;59.280;17.806;2023-08-24T04:59:10;7.32;;;3.28;;
35667;SDS011;22158;59.280;17.806;2023-08-24T05:01:35;5.28;;;3.08;;
35667;SDS011;22158;59.280;17.806;2023-08-24T05:04:02;4.15;;;2.78;;
35667;SDS011;22158;59.280;17.806;2023-08-24T05:06:27;10.07;;;2.88;;
35667;SDS011;22158;59.280;17.806;2023-08-24T05:08:53;7.97;;;3.10;;
35667;SDS011;22158;59.280;17.806;2023-08-24T05:11:20;8.73;;;2.67;;
35667;SDS011;22158;59.280;17.806;2023-08-24T05:13:47;7.82;;;3.50;;
35667;SDS011;22158;59.280;17.806;2023-08-24T05:16:13;5.03;;;3.20;;
35667;SDS011;22158;59.280;17.806;2023-08-24T05:18:39;6.22;;;2.65;;
35667;SDS011;22158;59.280;17.806;2023-08-24T05:21:05;7.38;;;3.20;;
35667;SDS011;22158;59.280;17.806;2023-08-24T05:23:31;5.70;;;3.65;;
35667;SDS011;22158;59.280;17.806;2023-08-24T05:25:58;7.55;;;2.80;;
35667;SDS011;22158;59.280;17.806;2023-08-24T05:28:24;4.10;;;3.10;;
35667;SDS011;22158;59.280;17.806;2023-08-24T05:30:54;8.27;;;3.63;;
35667;SDS011;22158;59.280;17.806;2023-08-24T05:33:21;5.10;;;3.00;;
35667;SDS011;22158;59.280;17.806;2023-08-24T05:35:47;6.63;;;3.28;;
35667;SDS011;22158;59.280;17.806;2023-08-24T05:38:14;4.55;;;3.50;;
35667;SDS011;22158;59.280;17.806;2023-08-24T05:40:40;6.60;;;3.03;;
35667;SDS011;22158;59.280;17.806;2023-08-24T05:43:07;4.22;;;3.03;;
35667;SDS011;22158;59.280;17.806;2023-08-24T05:45:36;7.88;;;3.40;;
35667;SDS011;22158;59.280;17.806;2023-08-24T05:48:05;8.05;;;3.30;;
35667;SDS011;22158;59.280;17.806;2023-08-24T05:50:31;6.82;;;2.80;;
35667;SDS011;22158;59.280;17.806;2023-08-24T05:52:56;9.30;;;3.33;;
35667;SDS011;22158;59.280;17.806;2023-08-24T05:55:22;5.57;;;2.75;;
35667;SDS011;22158;59.280;17.806;2023-08-24T05:57:47;8.45;;;3.40;;
35667;SDS011;22158;59.280;17.806;2023-08-24T06:00:13;9.82;;;3.55;;
35667;SDS011;22158;59.280;17.806;2023-08-24T06:02:39;5.78;;;3.13;;
35667;SDS011;22158;59.280;17.806;2023-08-24T06:05:06;6.55;;;2.97;;
35667;SDS011;22158;59.280;17.806;2023-08-24T06:07:32;11.18;;;3.90;;
35667;SDS011;22158;59.280;17.806;2023-08-24T06:09:58;5.07;;;3.28;;
35667;SDS011;22158;59.280;17.806;2023-08-24T06:12:24;7.05;;;3.15;;
35667;SDS011;22158;59.280;17.806;2023-08-24T06:14:50;10.82;;;4.43;;
35667;SDS011;22158;59.280;17.806;2023-08-24T06:17:15;9.95;;;3.70;;
35667;SDS011;22158;59.280;17.806;2023-08-24T06:19:41;9.90;;;3.28;;
35667;SDS011;22158;59.280;17.806;2023-08-24T06:22:07;5.47;;;3.42;;
35667;SDS011;22158;59.280;17.806;2023-08-24T06:24:32;7.38;;;3.47;;
35667;SDS011;22158;59.280;17.806;2023-08-24T06:26:58;7.20;;;3.10;;
35667;SDS011;22158;59.280;17.806;2023-08-24T06:29:24;10.50;;;3.22;;
35667;SDS011;22158;59.280;17.806;2023-08-24T06:31:49;11.10;;;3.65;;
35667;SDS011;22158;59.280;17.806;2023-08-24T06:34:15;9.02;;;3.15;;
35667;SDS011;22158;59.280;17.806;2023-08-24T06:36:40;7.00;;;2.95;;
35667;SDS011;22158;59.280;17.806;2023-08-24T06:39:06;6.15;;;2.83;;
35667;SDS011;22158;59.280;17.806;2023-08-24T06:41:35;8.27;;;3.03;;
35667;SDS011;22158;59.280;17.806;2023-08-24T06:44:01;5.50;;;3.08;;
35667;SDS011;22158;59.280;17.806;2023-08-24T06:46:27;7.25;;;3.00;;
35667;SDS011;22158;59.280;17.806;2023-08-24T06:48:54;8.20;;;3.40;;
35667;SDS011;22158;59.280;17.806;2023-08-24T06:51:19;7.30;;;3.17;;
35667;SDS011;22158;59.280;17.806;2023-08-24T06:53:45;6.38;;;2.97;;
35667;SDS011;22158;59.280;17.806;2023-08-24T06:56:12;4.93;;;2.75;;
35667;SDS011;22158;59.280;17.806;2023-08-24T06:58:39;8.13;;;3.05;;
35667;SDS011;22158;59.280;17.806;2023-08-24T07:01:04;6.25;;;2.67;;
35667;SDS011;22158;59.280;17.806;2023-08-24T07:03:31;7.10;;;2.97;;
35667;SDS011;22158;59.280;17.806;2023-08-24T07:05:58;9.00;;;4.13;;
35667;SDS011;22158;59.280;17.806;2023-08-24T07:08:23;6.45;;;3.05;;
35667;SDS011;22158;59.280;17.806;2023-08-24T07:10:49;6.25;;;4.07;;
35667;SDS011;22158;59.280;17.806;2023-08-24T07:13:15;9.13;;;3.72;;
35667;SDS011;22158;59.280;17.806;2023-08-24T07:15:40;8.45;;;3.75;;
35667;SDS011;22158;59.280;17.806;2023-08-24T07:18:07;8.95;;;2.97;;
35667;SDS011;22158;59.280;17.806;2023-08-24T07:20:33;4.78;;;2.55;;
35667;SDS011;22158;59.280;17.806;2023-08-24T07:22:59;6.15;;;2.97;;
35667;SDS011;22158;59.280;17.806;2023-08-24T07:25:25;8.13;;;2.53;;
35667;SDS011;22158;59.280;17.806;2023-08-24T07:27:53;4.25;;;3.20;;
35667;SDS011;22158;59.280;17.806;2023-08-24T07:30:23;5.28;;;3.00;;
35667;SDS011;22158;59.280;17.806;2023-08-24T07:32:49;5.13;;;2.97;;
35667;SDS011;22158;59.280;17.806;2023-08-24T07:35:15;6.05;;;2.67;;
35667;SDS011;22158;59.280;17.806;2023-08-24T07:37:41;7.82;;;2.92;;
35667;SDS011;22158;59.280;17.806;2023-08-24T07:40:07;8.40;;;3.05;;
35667;SDS011;22158;59.280;17.806;2023-08-24T07:42:42;7.72;;;3.00;;
35667;SDS011;22158;59.280;17.806;2023-08-24T07:45:09;10.63;;;2.78;;
35667;SDS011;22158;59.280;17.806;2023-08-24T07:47:35;8.70;;;3.08;;
35667;SDS011;22158;59.280;17.806;2023-08-24T07:50:00;11.57;;;4.18;;
35667;SDS011;22158;59.280;17.806;2023-08-24T07:52:26;6.32;;;2.75;;
35667;SDS011;22158;59.280;17.806;2023-08-24T07:54:53;9.65;;;3.70;;
35667;SDS011;22158;59.280;17.806;2023-08-24T07:57:20;6.90;;;3.70;;
35667;SDS011;22158;59.280;17.806;2023-08-24T07:59:46;4.65;;;2.45;;
35667;SDS011;22158;59.280;17.806;2023-08-24T08:02:11;6.38;;;2.83;;
35667;SDS011;22158;59.280;17.806;2023-08-24T08:04:37;8.95;;;3.13;;
35667;SDS011;22158;59.280;17.806;2023-08-24T08:07:02;7.40;;;2.80;;
35667;SDS011;22158;59.280;17.806;2023-08-24T08:09:28;5.53;;;2.80;;
35667;SDS011;22158;59.280;17.806;2023-08-24T08:11:54;7.00;;;2.28;;
35667;SDS011;22158;59.280;17.806;2023-08-24T08:14:19;9.77;;;3.50;;
35667;SDS011;22158;59.280;17.806;2023-08-24T08:16:45;5.95;;;2.22;;
35667;SDS011;22158;59.280;17.806;2023-08-24T08:19:10;7.05;;;2.63;;
35667;SDS011;22158;59.280;17.806;2023-08-24T08:21:36;5.82;;;2.90;;
35667;SDS011;22158;59.280;17.806;2023-08-24T08:24:02;6.20;;;2.63;;
35667;SDS011;22158;59.280;17.806;2023-08-24T08:26:27;10.70;;;2.95;;
35667;SDS011;22158;59.280;17.806;2023-08-24T08:28:54;7.70;;;2.80;;
35667;SDS011;22158;59.280;17.806;2023-08-24T08:31:19;10.75;;;3.20;;
35667;SDS011;22158;59.280;17.806;2023-08-24T08:33:45;6.72;;;3.22;;
35667;SDS011;22158;59.280;17.806;2023-08-24T08:36:10;7.68;;;2.60;;
35667;SDS011;22158;59.280;17.806;2023-08-24T08:38:36;6.60;;;2.53;;
35667;SDS011;22158;59.280;17.806;2023-08-24T08:41:03;5.50;;;2.85;;
35667;SDS011;22158;59.280;17.806;2023-08-24T08:43:29;6.43;;;3.15;;
35667;SDS011;22158;59.280;17.806;2023-08-24T08:45:55;9.32;;;3.00;;
35667;SDS011;22158;59.280;17.806;2023-08-24T08:48:22;6.65;;;2.83;;
35667;SDS011;22158;59.280;17.806;2023-08-24T08:50:49;5.25;;;2.53;;
35667;SDS011;22158;59.280;17.806;2023-08-24T08:53:16;8.13;;;3.22;;
35667;SDS011;22158;59.280;17.806;2023-08-24T08:55:41;5.93;;;3.45;;
35667;SDS011;22158;59.280;17.806;2023-08-24T08:58:08;7.10;;;3.53;;
35667;SDS011;22158;59.280;17.806;2023-08-24T09:00:34;7.25;;;3.15;;
35667;SDS011;22158;59.280;17.806;2023-08-24T09:03:00;8.55;;;2.60;;
35667;SDS011;22158;59.280;17.806;2023-08-24T09:05:27;4.88;;;3.03;;
35667;SDS011;22158;59.280;17.806;2023-08-24T09:07:54;6.70;;;2.30;;
35667;SDS011;22158;59.280;17.806;2023-08-24T09:10:21;5.07;;;2.53;;
35667;SDS011;22158;59.280;17.806;2023-08-24T09:12:48;8.57;;;2.60;;
35667;SDS011;22158;59.280;17.806;2023-08-24T09:15:13;8.50;;;3.05;;
35667;SDS011;22158;59.280;17.806;2023-08-24T09:17:43;10.23;;;2.85;;
35667;SDS011;22158;59.280;17.806;2023-08-24T09:20:09;7.18;;;3.05;;
35667;SDS011;22158;59.280;17.806;2023-08-24T09:22:37;5.72;;;2.30;;
35667;SDS011;22158;59.280;17.806;2023-08-24T09:25:06;5.45;;;2.58;;
35667;SDS011;22158;59.280;17.806;2023-08-24T09:27:34;12.00;;;2.70;;
35667;SDS011;22158;59.280;17.806;2023-08-24T09:29:59;9.25;;;2.60;;
35667;SDS011;22158;59.280;17.806;2023-08-24T09:32:28;4.60;;;2.40;;
35667;SDS011;22158;59.280;17.806;2023-08-24T09:34:55;8.82;;;2.83;;
35667;SDS011;22158;59.280;17.806;2023-08-24T09:37:27;5.65;;;2.25;;
35667;SDS011;22158;59.280;17.806;2023-08-24T09:40:01;3.55;;;2.15;;
35667;SDS011;22158;59.280;17.806;2023-08-24T09:42:36;8.48;;;2.67;;
35667;SDS011;22158;59.280;17.806;2023-08-24T09:45:07;5.65;;;3.25;;
35667;SDS011;22158;59.280;17.806;2023-08-24T09:47:39;5.63;;;2.42;;
35667;SDS011;22158;59.280;17.806;2023-08-24T09:50:09;19.42;;;3.08;;
35667;SDS011;22158;59.280;17.806;2023-08-24T09:52:35;6.38;;;2.70;;
35667;SDS011;22158;59.280;17.806;2023-08-24T09:55:03;9.00;;;2.97;;
35667;SDS011;22158;59.280;17.806;2023-08-24T10:00:04;5.70;;;2.83;;
35667;SDS011;22158;59.280;17.806;2023-08-24T10:03:00;6.43;;;2.95;;
35667;SDS011;22158;59.280;17.806;2023-08-24T10:05:26;4.45;;;1.83;;
35667;SDS011;22158;59.280;17.806;2023-08-24T10:07:55;9.43;;;2.25;;
35667;SDS011;22158;59.280;17.806;2023-08-24T10:10:23;5.80;;;2.65;;
35667;SDS011;22158;59.280;17.806;2023-08-24T10:12:51;13.40;;;2.28;;
35667;SDS011;22158;59.280;17.806;2023-08-24T10:15:22;6.93;;;2.05;;
35667;SDS011;22158;59.280;17.806;2023-08-24T10:17:49;5.82;;;2.08;;
35667;SDS011;22158;59.280;17.806;2023-08-24T10:20:17;3.25;;;1.60;;
35667;SDS011;22158;59.280;17.806;2023-08-24T10:22:45;8.07;;;2.40;;
35667;SDS011;22158;59.280;17.806;2023-08-24T10:25:12;5.57;;;2.35;;
35667;SDS011;22158;59.280;17.806;2023-08-24T10:27:39;7.20;;;2.08;;
35667;SDS011;22158;59.280;17.806;2023-08-24T10:30:09;3.95;;;1.95;;
35667;SDS011;22158;59.280;17.806;2023-08-24T10:32:39;5.03;;;2.22;;
35667;SDS011;22158;59.280;17.806;2023-08-24T10:35:06;9.00;;;2.72;;
35667;SDS011;22158;59.280;17.806;2023-08-24T10:37:32;9.23;;;3.13;;
35667;SDS011;22158;59.280;17.806;2023-08-24T10:39:59;4.07;;;2.05;;
35667;SDS011;22158;59.280;17.806;2023-08-24T10:42:25;2.95;;;2.08;;
35667;SDS011;22158;59.280;17.806;2023-08-24T10:44:51;4.80;;;1.98;;
35667;SDS011;22158;59.280;17.806;2023-08-24T10:49:57;3.35;;;2.13;;
35667;SDS011;22158;59.280;17.806;2023-08-24T10:52:31;5.00;;;2.00;;
35667;SDS011;22158;59.280;17.806;2023-08-24T10:55:01;4.72;;;2.10;;
35667;SDS011;22158;59.280;17.806;2023-08-24T10:57:36;5.00;;;2.17;;
35667;SDS011;22158;59.280;17.806;2023-08-24T11:00:09;7.85;;;2.50;;
35667;SDS011;22158;59.280;17.806;2023-08-24T11:02:46;4.22;;;2.17;;
35667;SDS011;22158;59.280;17.806;2023-08-24T11:05:17;4.30;;;1.98;;
35667;SDS011;22158;59.280;17.806;2023-08-24T11:07:49;5.90;;;2.28;;
35667;SDS011;22158;59.280;17.806;2023-08-24T11:10:16;5.32;;;2.28;;
35667;SDS011;22158;59.280;17.806;2023-08-24T11:15:37;6.75;;;1.95;;
35667;SDS011;22158;59.280;17.806;2023-08-24T11:18:11;4.10;;;1.70;;
35667;SDS011;22158;59.280;17.806;2023-08-24T11:20:39;4.03;;;1.75;;
35667;SDS011;22158;59.280;17.806;2023-08-24T11:23:12;5.70;;;1.92;;
35667;SDS011;22158;59.280;17.806;2023-08-24T11:25:40;7.70;;;2.28;;
35667;SDS011;22158;59.280;17.806;2023-08-24T11:28:05;3.45;;;1.60;;
35667;SDS011;22158;59.280;17.806;2023-08-24T11:30:31;3.80;;;1.40;;
35667;SDS011;22158;59.280;17.806;2023-08-24T11:33:00;2.35;;;1.40;;
35667;SDS011;22158;59.280;17.806;2023-08-24T11:35:27;3.95;;;1.23;;
35667;SDS011;22158;59.280;17.806;2023-08-24T11:37:53;4.53;;;1.55;;
35667;SDS011;22158;59.280;17.806;2023-08-24T11:40:22;4.10;;;1.60;;
35667;SDS011;22158;59.280;17.806;2023-08-24T11:42:57;2.63;;;1.38;;
35667;SDS011;22158;59.280;17.806;2023-08-24T11:45:24;5.07;;;1.60;;
35667;SDS011;22158;59.280;17.806;2023-08-24T11:47:54;3.28;;;1.48;;
35667;SDS011;22158;59.280;17.806;2023-08-24T11:50:19;5.88;;;1.60;;
35667;SDS011;22158;59.280;17.806;2023-08-24T11:52:45;5.25;;;2.08;;
35667;SDS011;22158;59.280;17.806;2023-08-24T11:55:11;2.58;;;1.40;;
35667;SDS011;22158;59.280;17.806;2023-08-24T11:57:37;2.58;;;1.58;;
35667;SDS011;22158;59.280;17.806;2023-08-24T12:00:03;2.25;;;1.13;;
35667;SDS011;22158;59.280;17.806;2023-08-24T12:02:30;2.47;;;1.27;;
35667;SDS011;22158;59.280;17.806;2023-08-24T12:04:57;4.28;;;1.50;;
35667;SDS011;22158;59.280;17.806;2023-08-24T12:07:23;4.18;;;1.60;;
35667;SDS011;22158;59.280;17.806;2023-08-24T12:09:49;3.88;;;1.58;;
35667;SDS011;22158;59.280;17.806;2023-08-24T12:12:18;3.05;;;1.20;;
35667;SDS011;22158;59.280;17.806;2023-08-24T12:14:46;3.72;;;1.50;;
35667;SDS011;22158;59.280;17.806;2023-08-24T12:17:13;5.90;;;1.70;;
35667;SDS011;22158;59.280;17.806;2023-08-24T12:19:43;3.63;;;1.45;;
35667;SDS011;22158;59.280;17.806;2023-08-24T12:22:15;3.20;;;1.83;;
35667;SDS011;22158;59.280;17.806;2023-08-24T12:24:45;6.93;;;2.15;;
35667;SDS011;22158;59.280;17.806;2023-08-24T12:27:21;2.40;;;1.23;;
35667;SDS011;22158;59.280;17.806;2023-08-24T12:29:48;3.08;;;1.30;;
35667;SDS011;22158;59.280;17.806;2023-08-24T12:32:14;2.15;;;1.27;;
35667;SDS011;22158;59.280;17.806;2023-08-24T12:34:41;4.72;;;1.33;;
35667;SDS011;22158;59.280;17.806;2023-08-24T12:37:08;3.17;;;1.60;;
35667;SDS011;22158;59.280;17.806;2023-08-24T12:39:35;4.68;;;1.80;;
35667;SDS011;22158;59.280;17.806;2023-08-24T12:42:01;4.43;;;1.67;;
35667;SDS011;22158;59.280;17.806;2023-08-24T12:44:27;2.22;;;1.30;;
35667;SDS011;22158;59.280;17.806;2023-08-24T12:46:53;2.65;;;1.40;;
35667;SDS011;22158;59.280;17.806;2023-08-24T12:49:18;7.68;;;1.70;;
35667;SDS011;22158;59.280;17.806;2023-08-24T12:51:44;2.25;;;1.10;;
35667;SDS011;22158;59.280;17.806;2023-08-24T12:54:09;3.38;;;1.50;;
35667;SDS011;22158;59.280;17.806;2023-08-24T12:56:35;4.78;;;1.50;;
35667;SDS011;22158;59.280;17.806;2023-08-24T12:59:00;5.25;;;1.58;;
35667;SDS011;22158;59.280;17.806;2023-08-24T13:01:26;3.25;;;1.88;;
35667;SDS011;22158;59.280;17.806;2023-08-24T13:03:52;3.17;;;1.40;;
35667;SDS011;22158;59.280;17.806;2023-08-24T13:06:17;2.60;;;1.48;;
35667;SDS011;22158;59.280;17.806;2023-08-24T13:08:43;3.88;;;1.27;;
35667;SDS011;22158;59.280;17.806;2023-08-24T13:11:09;2.92;;;1.50;;
35667;SDS011;22158;59.280;17.806;2023-08-24T13:13:36;6.97;;;1.98;;
35667;SDS011;22158;59.280;17.806;2023-08-24T13:16:02;4.78;;;1.58;;
35667;SDS011;22158;59.280;17.806;2023-08-24T13:18:27;4.53;;;1.45;;
35667;SDS011;22158;59.280;17.806;2023-08-24T13:20:53;4.40;;;1.65;;
35667;SDS011;22158;59.280;17.806;2023-08-24T13:23:18;2.60;;;1.30;;
35667;SDS011;22158;59.280;17.806;2023-08-24T13:25:44;4.68;;;1.35;;
35667;SDS011;22158;59.280;17.806;2023-08-24T13:28:10;4.18;;;1.63;;
35667;SDS011;22158;59.280;17.806;2023-08-24T13:30:35;4.55;;;2.03;;
35667;SDS011;22158;59.280;17.806;2023-08-24T13:33:01;4.25;;;1.55;;
35667;SDS011;22158;59.280;17.806;2023-08-24T13:35:26;2.83;;;1.27;;
35667;SDS011;22158;59.280;17.806;2023-08-24T13:37:52;3.10;;;1.30;;
35667;SDS011;22158;59.280;17.806;2023-08-24T13:40:17;4.00;;;1.33;;
35667;SDS011;22158;59.280;17.806;2023-08-24T13:42:44;2.85;;;1.50;;
35667;SDS011;22158;59.280;17.806;2023-08-24T13:45:09;3.67;;;1.83;;
35667;SDS011;22158;59.280;17.806;2023-08-24T13:47:35;7.80;;;1.63;;
35667;SDS011;22158;59.280;17.806;2023-08-24T13:50:00;4.38;;;1.45;;
35667;SDS011;22158;59.280;17.806;2023-08-24T13:52:27;4.57;;;2.00;;
35667;SDS011;22158;59.280;17.806;2023-08-24T13:54:53;1.98;;;1.38;;
35667;SDS011;22158;59.280;17.806;2023-08-24T13:57:18;3.58;;;1.90;;
35667;SDS011;22158;59.280;17.806;2023-08-24T13:59:44;6.32;;;1.85;;
35667;SDS011;22158;59.280;17.806;2023-08-24T14:02:09;5.55;;;1.75;;
35667;SDS011;22158;59.280;17.806;2023-08-24T14:04:36;6.07;;;1.55;;
35667;SDS011;22158;59.280;17.806;2023-08-24T14:07:02;5.78;;;1.52;;
35667;SDS011;22158;59.280;17.806;2023-08-24T14:09:28;8.23;;;1.92;;
35667;SDS011;22158;59.280;17.806;2023-08-24T14:11:54;4.20;;;1.58;;
35667;SDS011;22158;59.280;17.806;2023-08-24T14:14:19;6.60;;;1.75;;
35667;SDS011;22158;59.280;17.806;2023-08-24T14:16:45;3.45;;;1.73;;
35667;SDS011;22158;59.280;17.806;2023-08-24T14:19:11;3.80;;;1.50;;
35667;SDS011;22158;59.280;17.806;2023-08-24T14:21:36;4.38;;;1.58;;
35667;SDS011;22158;59.280;17.806;2023-08-24T14:24:02;3.53;;;1.63;;
35667;SDS011;22158;59.280;17.806;2023-08-24T14:26:28;3.10;;;1.58;;
35667;SDS011;22158;59.280;17.806;2023-08-24T14:28:54;5.22;;;1.58;;
35667;SDS011;22158;59.280;17.806;2023-08-24T14:31:22;4.75;;;1.90;;
35667;SDS011;22158;59.280;17.806;2023-08-24T14:33:54;3.97;;;1.30;;
35667;SDS011;22158;59.280;17.806;2023-08-24T14:36:20;4.72;;;1.55;;
35667;SDS011;22158;59.280;17.806;2023-08-24T14:38:46;3.60;;;1.40;;
35667;SDS011;22158;59.280;17.806;2023-08-24T14:41:13;4.07;;;1.30;;
35667;SDS011;22158;59.280;17.806;2023-08-24T14:43:39;6.28;;;1.30;;